Strona główna
METAR-TAF:

METAR-TAF

Lotnisko :

Port lotniczy Mauritius

Mauritius, Mauritius

Szerokość geograficzna: 20-26S, Długość geograficzna: 057-40E, wysokość: 55 m

Aktualna obserwacja pogody

Raport powstał 16 minut temu, godzina 14:00 UTC
Wiatr 13 kt od wschodnio-południowy wschód
Temperatura 22°C
Wilgotność 73%
Ciśnienie 1020 hPa
Widzialność 10 km lub więcej
Przerywane chmury na wysokości 1600 ft
Rozproszone chmury na wysokości 5000 ft

METAR: FIMP 151400Z 12013KT 9999 BKN016 SCT050 22/17 Q1020

czas: 18:16 (14:16 UTC)

Prognoza

Raport powstał 2 godziny i 46 minut temu, godzina 11:30 UTC
Prognoza ważna od 15 godzina 12 UTC do 16 godzina 18 UTC
Wiatr 13 kt od południowy wschód w porywach dochodzący do 25 kt
Widzialność 10 km lub więcej
Rozproszone chmury na wysokości 1600 ft
Prawdopodobieństwo 30% :
Przejściowo
od 15 godzina 15 UTC do 15 godzina 20 UTC
Widzialność: 7000 m
Przerywane chmury na wysokości 1500 ft
słaby przelotny opad deszczu

TAF: FIMP 151130Z 1512/1618 14013G25KT 9999 SCT016 PROB30 TEMPO 1515/1520 7000 -SHRA BKN015

Obserwacja i prognoza pogody dla ponad 4000 lotnisk (raport METAR i TAF).

Dostępne stacje oznaczono żółtymi i czerwonymi punktami na mapie.

Najedź kursorem aby zobaczyć nazwę stacji.

Kliknij aby zobaczyć obserwacje i prognozy pogody.

Aby zmienić mapę: kliknij na zielony przycisk z czarnym krzyżykiem, aby powiększyć; na zielony przycisk z myślnikiem, aby pomniejszyć; na zielone strzałki, aby przejść do map sąsiednich.


METAR-TAF: